Anne Sibum — C4YC2 — position and weather

sailwx.info

Track history (hours):
 
Tides and Currents Weather Stations Pressure Air Temp Water Temp Dewpoint Dewpoint Depression Visibility Wind Speed Wind Dir Waves Ship Positions

Anne Sibum

Last reported at 2017-Mar-22 00:33 UTC. Time now 2017-Mar-23 08:23 UTC.
Position N 52°21' W 005°49'.

; draft 7.9 m.

Type: Ship (hazmat cat A). MMSI: 209322000.

Date/timePositionNaut miles runAvg speedWind from/ knotsBaromVisibWave heightAir tempDewpointWater temp
2017-Mar-22 00:33N 52°21' W 005°49'1211.7
2017-Mar-21 23:33N 52°09' W 005°47'7314.7
2017-Mar-21 18:32N 50°56' W 005°52'1515.6
2017-Mar-21 17:33N 50°41' W 005°51'1614.8
2017-Mar-21 16:30N 50°25' W 005°53'4210.2
2017-Mar-21 12:25N 49°56' W 005°07'1112.7
2017-Mar-21 11:33N 49°58' W 004°51'1413.8
2017-Mar-21 10:33N 50°00' W 004°30'1514.3
2017-Mar-21 09:31N 50°04' W 004°07'1414.7
2017-Mar-21 08:33N 50°06' W 003°45'1515.0
2017-Mar-21 07:33N 50°08' W 003°22'1515.2
2017-Mar-21 06:33N 50°11' W 002°59'1515.2
2017-Mar-21 05:33N 50°14' W 002°35'3614.3
2017-Mar-21 03:04N 50°20' W 001°41'713.2
2017-Mar-21 02:34N 50°21' W 001°30'1412.8
2017-Mar-21 01:28N 50°24' W 001°09'1212.6
2017-Mar-21 00:30N 50°26' W 000°50'1313.4
2017-Mar-20 23:32N 50°29' W 000°30'1413.9
2017-Mar-20 22:30N 50°31' W 000°08'1314.0
2017-Mar-20 21:33N 50°35' E 000°12'1514.6
2017-Mar-20 20:33N 50°38' E 000°35'1414.5
2017-Mar-20 19:33N 50°47' E 000°53'1413.9
2017-Mar-20 18:33N 50°55' E 001°11'1212.5
2017-Mar-20 17:33N 51°03' E 001°26'1211.7
2017-Mar-20 16:33N 51°11' E 001°40'1212.0
2017-Mar-20 15:33N 51°20' E 001°52'1313.3
2017-Mar-20 14:34N 51°31' E 002°05'6813.5
2017-Mar-20 09:33N 52°04' E 003°40'1110.9
2017-Mar-20 08:33N 52°01' E 003°57'4 3.9
2017-Mar-20 07:33N 51°58' E 003°60'1 0.5
2017-Mar-20 06:31N 51°57' E 004°00'0 0.0
2017-Mar-20 05:31N 51°57' E 004°00'0 0.0
2017-Mar-20 04:33N 51°57' E 004°00'0 0.0
2017-Mar-20 03:33N 51°57' E 004°00'0 0.0
2017-Mar-20 02:30N 51°57' E 004°00'0 0.0
2017-Mar-20 01:33N 51°57' E 004°00'2 2.1
2017-Mar-20 00:34N 51°58' E 004°04'1 0.8
2017-Mar-19 23:32N 51°57' E 004°02'0 0.0
2017-Mar-19 22:32N 51°57' E 004°02'0 0.0
2017-Mar-19 21:32N 51°57' E 004°02'0 0.0
2017-Mar-19 20:32N 51°57' E 004°02'0 0.0
2017-Mar-19 19:32N 51°57' E 004°02'0 0.0
2017-Mar-19 18:32N 51°57' E 004°02'0 0.0
2017-Mar-19 17:33N 51°57' E 004°02'1 1.3
2017-Mar-19 16:33N 51°59' E 004°01'0 0.0
2017-Mar-19 15:33N 51°59' E 004°01'0 0.0
2017-Mar-19 14:33N 51°59' E 004°01'0 0.0
2017-Mar-19 13:33N 51°59' E 004°01'0 0.0
2017-Mar-19 12:33N 51°59' E 004°01'0 0.0
2017-Mar-19 11:33N 51°59' E 004°01'0 0.0
2017-Mar-19 10:33N 51°59' E 004°01'0 0.0
2017-Mar-19 09:33N 51°59' E 004°01'0 0.0
2017-Mar-19 08:33N 51°59' E 004°01'0 0.0
2017-Mar-19 07:33N 51°59' E 004°01'0 0.0
2017-Mar-19 06:33N 51°59' E 004°01'2 2.0
2017-Mar-19 05:32N 51°57' E 004°03'0 0.0
2017-Mar-19 04:29N 51°57' E 004°03'0 0.0
2017-Mar-19 03:32N 51°57' E 004°03'0 0.0
2017-Mar-19 02:32N 51°57' E 004°03'0 0.0
2017-Mar-19 01:32N 51°57' E 004°03'0 0.0
2017-Mar-19 00:32N 51°57' E 004°03'0 0.0
2017-Mar-18 23:32N 51°57' E 004°03'0 0.0
2017-Mar-18 22:31N 51°57' E 004°03'0 0.0
2017-Mar-18 21:32N 51°57' E 004°03'0 0.0
2017-Mar-18 20:32N 51°57' E 004°03'0 0.0
2017-Mar-18 19:32N 51°57' E 004°03'0 0.0
2017-Mar-18 18:28N 51°57' E 004°03'0 0.0
2017-Mar-18 17:32N 51°57' E 004°03'0 0.0
2017-Mar-18 16:28N 51°57' E 004°03'2 2.5
2017-Mar-18 15:33N 51°59' E 004°05'1211.6
2017-Mar-18 14:33N 51°54' E 004°22'3 2.5
2017-Mar-18 13:33N 51°53' E 004°25'0 0.0
2017-Mar-18 12:34N 51°53' E 004°25'0 0.0
2017-Mar-18 11:34N 51°53' E 004°25'0 0.0
2017-Mar-18 10:33N 51°53' E 004°25'0 0.0
2017-Mar-18 09:33N 51°53' E 004°25'0 0.0
2017-Mar-18 08:34N 51°53' E 004°25'0 0.0
2017-Mar-18 07:34N 51°53' E 004°25'0 0.0
2017-Mar-18 06:31N 51°53' E 004°25'0 0.0
2017-Mar-18 05:34N 51°53' E 004°25'0 0.0
2017-Mar-18 04:34N 51°53' E 004°25'0 0.0
2017-Mar-18 03:33N 51°53' E 004°25'0 0.0
2017-Mar-18 02:34N 51°53' E 004°25'0 0.0
2017-Mar-18 01:34N 51°53' E 004°25'0 0.0
2017-Mar-18 00:33N 51°53' E 004°25'0 0.0
2017-Mar-17 23:33N 51°53' E 004°25'0 0.0
2017-Mar-17 22:34N 51°53' E 004°25'1 1.0
2017-Mar-17 21:34N 51°54' E 004°24'9 9.4
2017-Mar-17 20:34N 51°57' E 004°10'1111.5
2017-Mar-17 19:34N 52°01' E 003°52'1211.7
2017-Mar-17 18:32N 51°56' E 003°34'4112.9
2017-Mar-17 15:21N 51°41' E 002°32'1113.6
2017-Mar-17 14:34N 51°33' E 002°21'1313.2
2017-Mar-17 13:33N 51°22' E 002°08'1313.6
2017-Mar-17 12:34N 51°11' E 001°56'1515.3
2017-Mar-17 11:34N 51°01' E 001°38'6912.8
2017-Mar-17 06:11N 50°21' E 000°11'711.7
2017-Mar-17 05:33N 50°20' W 000°01'1312.0
2017-Mar-17 04:30N 50°18' W 000°21'3812.9
2017-Mar-17 01:33N 50°15' W 001°20'1413.6
2017-Mar-17 00:34N 50°14' W 001°41'3215.2
2017-Mar-16 22:25N 50°10' W 002°31'1314.9
2017-Mar-16 21:34N 50°08' W 002°51'1615.4
2017-Mar-16 20:32N 50°06' W 003°15'1515.5
2017-Mar-16 19:34N 50°04' W 003°39'1615.8
2017-Mar-16 18:33N 50°02' W 004°03'2015.3
2017-Mar-16 17:14N 49°59' W 004°35'1015.1
2017-Mar-16 16:34N 49°57' W 004°50'2914.6
2017-Mar-16 14:33N 49°56' W 005°35'1514.7
2017-Mar-16 13:33N 49°55' W 005°58'7915.6
2017-Mar-16 08:30N 51°14' W 006°00'1415.1
2017-Mar-16 07:33N 51°28' W 005°59'15216.4
2017-Mar-15 22:15N 53°59' W 005°25'1116.2
2017-Mar-15 21:33N 54°11' W 005°23'1716.9
2017-Mar-15 20:33N 54°27' W 005°20'1616.4
2017-Mar-15 19:34N 54°43' W 005°30'1312.3
2017-Mar-15 18:29N 54°39' W 005°52'1 0.7
2017-Mar-15 17:19N 54°38' W 005°53'0 0.0
2017-Mar-15 06:13N 54°38' W 005°53'0 0.0
2017-Mar-15 04:19N 54°38' W 005°53'0 0.0
2017-Mar-15 02:28N 54°38' W 005°53'0 0.0
2017-Mar-15 01:13N 54°38' W 005°53'0 0.0
2017-Mar-14 12:28N 54°38' W 005°53'6 6.4
2017-Mar-14 11:33N 54°42' W 005°46'9 9.2
2017-Mar-14 10:34N 54°43' W 005°30'1010.3
2017-Mar-14 09:33N 54°34' W 005°22'1110.9
2017-Mar-14 08:34N 54°23' W 005°19'1111.3
2017-Mar-14 07:33N 54°13' W 005°27'1312.6
2017-Mar-14 06:34N 54°01' W 005°34'1313.3
2017-Mar-14 05:33N 53°48' W 005°43'162 4.8
2017-Mar-12 20:06N 51°06' W 005°52'712.8
2017-Mar-12 19:33N 50°59' W 005°52'1313.4
2017-Mar-12 18:33N 50°46' W 005°52'1713.6
2017-Mar-12 17:17N 50°28' W 005°53'4110.7
2017-Mar-12 13:25N 49°55' W 005°14'1214.0
2017-Mar-12 12:33N 49°57' W 004°55'1414.4
2017-Mar-12 11:33N 49°60' W 004°33'1514.6
2017-Mar-12 10:33N 50°03' W 004°11'1414.2
2017-Mar-12 09:33N 50°05' W 003°49'1413.7
2017-Mar-12 08:33N 50°07' W 003°28'1413.8
2017-Mar-12 07:33N 50°10' W 003°07'1414.1
2017-Mar-12 06:33N 50°12' W 002°45'1714.6
2017-Mar-12 05:25N 50°15' W 002°19'3116.7
2017-Mar-12 03:34N 50°20' W 001°32'1918.7
2017-Mar-12 02:33N 50°25' W 001°03'1919.2
2017-Mar-12 01:33N 50°28' W 000°33'1818.2
2017-Mar-12 00:33N 50°31' W 000°05'  
Track history (hours):
 
Tides and Currents Weather Stations Pressure Air Temp Water Temp Dewpoint Dewpoint Depression Visibility Wind Speed Wind Dir Waves Ship Positions

Anne Sibum

Last reported at 2017-Mar-22 00:33 UTC. Time now 2017-Mar-23 08:23 UTC.
Position N 52°21' W 005°49'.

; draft 7.9 m.

Type: Ship (hazmat cat A). MMSI: 209322000.

Date/timePositionNaut miles runAvg speedWind from/ knotsBaromVisibWave heightAir tempDewpointWater temp
2017-Mar-22 00:33N 52°21' W 005°49'1211.7
2017-Mar-21 23:33N 52°09' W 005°47'7314.7
2017-Mar-21 18:32N 50°56' W 005°52'1515.6
2017-Mar-21 17:33N 50°41' W 005°51'1614.8
2017-Mar-21 16:30N 50°25' W 005°53'4210.2
2017-Mar-21 12:25N 49°56' W 005°07'1112.7
2017-Mar-21 11:33N 49°58' W 004°51'1413.8
2017-Mar-21 10:33N 50°00' W 004°30'1514.3
2017-Mar-21 09:31N 50°04' W 004°07'1414.7
2017-Mar-21 08:33N 50°06' W 003°45'1515.0
2017-Mar-21 07:33N 50°08' W 003°22'1515.2
2017-Mar-21 06:33N 50°11' W 002°59'1515.2
2017-Mar-21 05:33N 50°14' W 002°35'3614.3
2017-Mar-21 03:04N 50°20' W 001°41'713.2
2017-Mar-21 02:34N 50°21' W 001°30'1412.8
2017-Mar-21 01:28N 50°24' W 001°09'1212.6
2017-Mar-21 00:30N 50°26' W 000°50'1313.4
2017-Mar-20 23:32N 50°29' W 000°30'1413.9
2017-Mar-20 22:30N 50°31' W 000°08'1314.0
2017-Mar-20 21:33N 50°35' E 000°12'1514.6
2017-Mar-20 20:33N 50°38' E 000°35'1414.5
2017-Mar-20 19:33N 50°47' E 000°53'1413.9
2017-Mar-20 18:33N 50°55' E 001°11'1212.5
2017-Mar-20 17:33N 51°03' E 001°26'1211.7
2017-Mar-20 16:33N 51°11' E 001°40'1212.0
2017-Mar-20 15:33N 51°20' E 001°52'1313.3
2017-Mar-20 14:34N 51°31' E 002°05'6813.5
2017-Mar-20 09:33N 52°04' E 003°40'1110.9
2017-Mar-20 08:33N 52°01' E 003°57'4 3.9
2017-Mar-20 07:33N 51°58' E 003°60'1 0.5
2017-Mar-20 06:31N 51°57' E 004°00'0 0.0
2017-Mar-20 05:31N 51°57' E 004°00'0 0.0
2017-Mar-20 04:33N 51°57' E 004°00'0 0.0
2017-Mar-20 03:33N 51°57' E 004°00'0 0.0
2017-Mar-20 02:30N 51°57' E 004°00'0 0.0
2017-Mar-20 01:33N 51°57' E 004°00'2 2.1
2017-Mar-20 00:34N 51°58' E 004°04'1 0.8
2017-Mar-19 23:32N 51°57' E 004°02'0 0.0
2017-Mar-19 22:32N 51°57' E 004°02'0 0.0
2017-Mar-19 21:32N 51°57' E 004°02'0 0.0
2017-Mar-19 20:32N 51°57' E 004°02'0 0.0
2017-Mar-19 19:32N 51°57' E 004°02'0 0.0
2017-Mar-19 18:32N 51°57' E 004°02'0 0.0
2017-Mar-19 17:33N 51°57' E 004°02'1 1.3
2017-Mar-19 16:33N 51°59' E 004°01'0 0.0
2017-Mar-19 15:33N 51°59' E 004°01'0 0.0
2017-Mar-19 14:33N 51°59' E 004°01'0 0.0
2017-Mar-19 13:33N 51°59' E 004°01'0 0.0
2017-Mar-19 12:33N 51°59' E 004°01'0 0.0
2017-Mar-19 11:33N 51°59' E 004°01'0 0.0
2017-Mar-19 10:33N 51°59' E 004°01'0 0.0
2017-Mar-19 09:33N 51°59' E 004°01'0 0.0
2017-Mar-19 08:33N 51°59' E 004°01'0 0.0
2017-Mar-19 07:33N 51°59' E 004°01'0 0.0
2017-Mar-19 06:33N 51°59' E 004°01'2 2.0
2017-Mar-19 05:32N 51°57' E 004°03'0 0.0
2017-Mar-19 04:29N 51°57' E 004°03'0 0.0
2017-Mar-19 03:32N 51°57' E 004°03'0 0.0
2017-Mar-19 02:32N 51°57' E 004°03'0 0.0
2017-Mar-19 01:32N 51°57' E 004°03'0 0.0
2017-Mar-19 00:32N 51°57' E 004°03'0 0.0
2017-Mar-18 23:32N 51°57' E 004°03'0 0.0
2017-Mar-18 22:31N 51°57' E 004°03'0 0.0
2017-Mar-18 21:32N 51°57' E 004°03'0 0.0
2017-Mar-18 20:32N 51°57' E 004°03'0 0.0
2017-Mar-18 19:32N 51°57' E 004°03'0 0.0
2017-Mar-18 18:28N 51°57' E 004°03'0 0.0
2017-Mar-18 17:32N 51°57' E 004°03'0 0.0
2017-Mar-18 16:28N 51°57' E 004°03'2 2.5
2017-Mar-18 15:33N 51°59' E 004°05'1211.6
2017-Mar-18 14:33N 51°54' E 004°22'3 2.5
2017-Mar-18 13:33N 51°53' E 004°25'0 0.0
2017-Mar-18 12:34N 51°53' E 004°25'0 0.0
2017-Mar-18 11:34N 51°53' E 004°25'0 0.0
2017-Mar-18 10:33N 51°53' E 004°25'0 0.0
2017-Mar-18 09:33N 51°53' E 004°25'0 0.0
2017-Mar-18 08:34N 51°53' E 004°25'0 0.0
2017-Mar-18 07:34N 51°53' E 004°25'0 0.0
2017-Mar-18 06:31N 51°53' E 004°25'0 0.0
2017-Mar-18 05:34N 51°53' E 004°25'0 0.0
2017-Mar-18 04:34N 51°53' E 004°25'0 0.0
2017-Mar-18 03:33N 51°53' E 004°25'0 0.0
2017-Mar-18 02:34N 51°53' E 004°25'0 0.0
2017-Mar-18 01:34N 51°53' E 004°25'0 0.0
2017-Mar-18 00:33N 51°53' E 004°25'0 0.0
2017-Mar-17 23:33N 51°53' E 004°25'0 0.0
2017-Mar-17 22:34N 51°53' E 004°25'1 1.0
2017-Mar-17 21:34N 51°54' E 004°24'9 9.4
2017-Mar-17 20:34N 51°57' E 004°10'1111.5
2017-Mar-17 19:34N 52°01' E 003°52'1211.7
2017-Mar-17 18:32N 51°56' E 003°34'4112.9
2017-Mar-17 15:21N 51°41' E 002°32'1113.6
2017-Mar-17 14:34N 51°33' E 002°21'1313.2
2017-Mar-17 13:33N 51°22' E 002°08'1313.6
2017-Mar-17 12:34N 51°11' E 001°56'1515.3
2017-Mar-17 11:34N 51°01' E 001°38'6912.8
2017-Mar-17 06:11N 50°21' E 000°11'711.7
2017-Mar-17 05:33N 50°20' W 000°01'1312.0
2017-Mar-17 04:30N 50°18' W 000°21'3812.9
2017-Mar-17 01:33N 50°15' W 001°20'1413.6
2017-Mar-17 00:34N 50°14' W 001°41'3215.2
2017-Mar-16 22:25N 50°10' W 002°31'1314.9
2017-Mar-16 21:34N 50°08' W 002°51'1615.4
2017-Mar-16 20:32N 50°06' W 003°15'1515.5
2017-Mar-16 19:34N 50°04' W 003°39'1615.8
2017-Mar-16 18:33N 50°02' W 004°03'2015.3
2017-Mar-16 17:14N 49°59' W 004°35'1015.1
2017-Mar-16 16:34N 49°57' W 004°50'2914.6
2017-Mar-16 14:33N 49°56' W 005°35'1514.7
2017-Mar-16 13:33N 49°55' W 005°58'7915.6
2017-Mar-16 08:30N 51°14' W 006°00'1415.1
2017-Mar-16 07:33N 51°28' W 005°59'15216.4
2017-Mar-15 22:15N 53°59' W 005°25'1116.2
2017-Mar-15 21:33N 54°11' W 005°23'1716.9
2017-Mar-15 20:33N 54°27' W 005°20'1616.4
2017-Mar-15 19:34N 54°43' W 005°30'1312.3
2017-Mar-15 18:29N 54°39' W 005°52'1 0.7
2017-Mar-15 17:19N 54°38' W 005°53'0 0.0
2017-Mar-15 06:13N 54°38' W 005°53'0 0.0
2017-Mar-15 04:19N 54°38' W 005°53'0 0.0
2017-Mar-15 02:28N 54°38' W 005°53'0 0.0
2017-Mar-15 01:13N 54°38' W 005°53'0 0.0
2017-Mar-14 12:28N 54°38' W 005°53'6 6.4
2017-Mar-14 11:33N 54°42' W 005°46'9 9.2
2017-Mar-14 10:34N 54°43' W 005°30'1010.3
2017-Mar-14 09:33N 54°34' W 005°22'1110.9
2017-Mar-14 08:34N 54°23' W 005°19'1111.3
2017-Mar-14 07:33N 54°13' W 005°27'1312.6
2017-Mar-14 06:34N 54°01' W 005°34'1313.3
2017-Mar-14 05:33N 53°48' W 005°43'162 4.8
2017-Mar-12 20:06N 51°06' W 005°52'712.8
2017-Mar-12 19:33N 50°59' W 005°52'1313.4
2017-Mar-12 18:33N 50°46' W 005°52'1713.6
2017-Mar-12 17:17N 50°28' W 005°53'4110.7
2017-Mar-12 13:25N 49°55' W 005°14'1214.0
2017-Mar-12 12:33N 49°57' W 004°55'1414.4
2017-Mar-12 11:33N 49°60' W 004°33'1514.6
2017-Mar-12 10:33N 50°03' W 004°11'1414.2
2017-Mar-12 09:33N 50°05' W 003°49'1413.7
2017-Mar-12 08:33N 50°07' W 003°28'1413.8
2017-Mar-12 07:33N 50°10' W 003°07'1414.1
2017-Mar-12 06:33N 50°12' W 002°45'1714.6
2017-Mar-12 05:25N 50°15' W 002°19'3116.7
2017-Mar-12 03:34N 50°20' W 001°32'1918.7
2017-Mar-12 02:33N 50°25' W 001°03'1919.2
2017-Mar-12 01:33N 50°28' W 000°33'1818.2
2017-Mar-12 00:33N 50°31' W 000°05'  

Dump ship's entire track history